createdAt,value
2023-03-10T00:01:24.973Z,103.43
2023-03-10T00:03:54.103Z,96.63
2023-03-10T00:06:25.789Z,104.30
2023-03-10T00:08:55.115Z,107.23
2023-03-10T00:11:23.907Z,111.47
2023-03-10T00:13:53.925Z,109.47
2023-03-10T00:16:25.633Z,102.67
2023-03-10T00:18:54.944Z,108.77
2023-03-10T00:21:25.709Z,106.27
2023-03-10T00:23:54.531Z,109.40
2023-03-10T00:26:24.820Z,107.20
2023-03-10T00:28:55.032Z,93.20
2023-03-10T00:31:27.292Z,103.87
2023-03-10T00:33:57.687Z,108.80
2023-03-10T00:36:29.082Z,104.20
2023-03-10T00:39:00.823Z,99.00
2023-03-10T00:41:31.863Z,103.80
2023-03-10T00:44:02.505Z,111.10
2023-03-10T00:46:33.301Z,114.80
2023-03-10T00:49:01.893Z,97.83
2023-03-10T00:51:30.779Z,113.87
2023-03-10T00:54:00.637Z,112.57
2023-03-10T00:56:30.197Z,99.60
2023-03-10T00:59:01.827Z,104.77
2023-03-10T01:01:32.699Z,104.57
2023-03-10T01:04:03.154Z,101.50
2023-03-10T01:06:34.092Z,111.50
2023-03-10T01:09:02.798Z,109.43
2023-03-10T01:11:32.217Z,110.70
2023-03-10T01:14:04.312Z,105.50
2023-03-10T01:16:33.240Z,100.80
2023-03-10T01:19:02.286Z,109.00
2023-03-10T01:21:32.514Z,109.47
2023-03-10T01:24:01.940Z,101.80
2023-03-10T01:26:31.838Z,116.30
2023-03-10T01:29:01.689Z,112.50
2023-03-10T01:31:30.883Z,105.10
2023-03-10T01:33:59.546Z,112.60
2023-03-10T01:36:29.825Z,105.93
2023-03-10T01:39:00.319Z,97.10
2023-03-10T01:41:29.060Z,101.00
2023-03-10T01:43:58.140Z,111.33
2023-03-10T01:46:53.224Z,95.30
2023-03-10T01:49:34.845Z,97.27
2023-03-10T01:52:09.584Z,105.47
2023-03-10T01:54:46.458Z,96.20
2023-03-10T01:57:17.914Z,103.60
2023-03-10T01:59:47.148Z,106.73
2023-03-10T02:02:19.241Z,112.97
2023-03-10T02:04:49.532Z,96.20
2023-03-10T02:07:27.063Z,99.40
2023-03-10T02:09:57.234Z,100.83
2023-03-10T02:12:25.995Z,102.07
2023-03-10T02:14:55.466Z,107.40
2023-03-10T02:17:27.512Z,95.60
2023-03-10T02:20:21.756Z,95.90
2023-03-10T02:22:51.793Z,100.30
2023-03-10T02:25:34.674Z,89.43
2023-03-10T02:28:05.638Z,88.57
2023-03-10T02:30:38.661Z,94.23
2023-03-10T02:33:12.234Z,92.23
2023-03-10T02:35:41.071Z,88.50
2023-03-10T02:38:13.933Z,107.27
2023-03-10T02:40:47.287Z,102.73
2023-03-10T02:43:26.281Z,92.00
2023-03-10T02:46:02.734Z,104.70
2023-03-10T02:48:35.359Z,93.33
2023-03-10T02:51:10.600Z,94.57
2023-03-10T02:53:39.757Z,94.93
2023-03-10T02:56:08.882Z,95.70
2023-03-10T02:58:42.165Z,97.47
2023-03-10T03:01:11.509Z,94.80
2023-03-10T03:03:43.090Z,104.27
2023-03-10T03:06:12.337Z,105.67
2023-03-10T03:08:41.368Z,92.03
2023-03-10T03:11:12.855Z,93.87
2023-03-10T03:13:43.649Z,102.80
2023-03-10T03:16:13.565Z,109.17
2023-03-10T03:18:42.970Z,105.53
2023-03-10T03:21:17.361Z,110.43
2023-03-10T03:23:48.097Z,99.70
2023-03-10T03:26:21.509Z,106.03
2023-03-10T03:28:53.318Z,103.37
2023-03-10T03:31:27.191Z,101.40
2023-03-10T03:34:11.091Z,116.07
2023-03-10T03:36:39.782Z,101.70
2023-03-10T03:39:10.168Z,115.10
2023-03-10T03:41:41.085Z,113.30
2023-03-10T03:44:13.206Z,106.33
2023-03-10T03:46:42.520Z,111.87
2023-03-10T03:49:11.640Z,112.67
2023-03-10T03:51:40.893Z,107.20
2023-03-10T03:54:10.294Z,104.77
2023-03-10T03:56:41.239Z,111.03
2023-03-10T03:59:13.802Z,113.87
2023-03-10T04:01:42.807Z,108.30
2023-03-10T04:04:11.924Z,112.90
2023-03-10T04:06:41.285Z,108.40
2023-03-10T04:09:11.475Z,116.87
2023-03-10T04:11:40.529Z,122.03
2023-03-10T04:14:09.458Z,116.83
2023-03-10T04:16:39.693Z,106.70
2023-03-10T04:19:09.315Z,117.93
2023-03-10T04:21:42.536Z,119.00
2023-03-10T04:24:11.615Z,112.23
2023-03-10T04:26:40.441Z,112.43
2023-03-10T04:29:10.344Z,112.23
2023-03-10T04:31:46.466Z,118.30
2023-03-10T04:34:19.702Z,110.20
2023-03-10T04:36:48.254Z,109.37
2023-03-10T04:39:17.139Z,118.90
2023-03-10T04:41:45.688Z,109.50
2023-03-10T04:44:29.794Z,103.60
2023-03-10T04:47:01.330Z,113.20
2023-03-10T04:49:30.861Z,114.27
2023-03-10T04:52:00.120Z,122.77
2023-03-10T04:54:29.908Z,115.87
2023-03-10T04:56:58.629Z,114.47
2023-03-10T04:59:27.891Z,119.27
2023-03-10T05:01:56.776Z,115.27
2023-03-10T05:04:27.307Z,105.37
2023-03-10T05:06:57.361Z,120.90
2023-03-10T05:09:30.626Z,114.97
2023-03-10T05:11:59.213Z,114.37
2023-03-10T05:14:32.110Z,121.43
2023-03-10T05:17:00.759Z,119.80
2023-03-10T05:19:31.563Z,113.07
2023-03-10T05:22:01.421Z,119.97
2023-03-10T05:24:31.282Z,115.93
2023-03-10T05:27:02.539Z,120.70
2023-03-10T05:29:32.554Z,117.70
2023-03-10T05:32:11.412Z,122.97
2023-03-10T05:34:43.881Z,117.37
2023-03-10T05:37:12.578Z,126.40
2023-03-10T05:39:41.421Z,106.87
2023-03-10T05:42:13.383Z,119.07
2023-03-10T05:44:43.513Z,116.50
2023-03-10T05:47:14.052Z,115.97
2023-03-10T05:49:44.297Z,115.47
2023-03-10T05:52:12.965Z,108.83
2023-03-10T05:54:42.958Z,111.63
2023-03-10T05:57:14.147Z,113.13
2023-03-10T05:59:43.895Z,117.83
2023-03-10T06:02:12.568Z,116.57
2023-03-10T06:04:41.358Z,108.60
2023-03-10T06:07:11.237Z,106.20
2023-03-10T06:09:40.150Z,114.80
2023-03-10T06:12:08.878Z,118.00
2023-03-10T06:14:39.581Z,102.50
2023-03-10T06:17:08.137Z,103.97
2023-03-10T06:19:36.887Z,120.13
2023-03-10T06:22:05.372Z,109.67
2023-03-10T06:24:35.474Z,117.33
2023-03-10T06:27:03.953Z,134.90
2023-03-10T06:29:33.114Z,106.40
2023-03-10T06:32:01.638Z,118.60
2023-03-10T06:34:30.370Z,103.43
2023-03-10T06:36:58.806Z,99.97
2023-03-10T06:39:29.011Z,110.57
2023-03-10T06:41:59.016Z,114.13
2023-03-10T06:44:27.712Z,103.10
2023-03-10T06:46:56.531Z,113.80
2023-03-10T06:49:30.487Z,112.40
2023-03-10T06:51:59.422Z,105.50
2023-03-10T06:54:28.327Z,109.33
2023-03-10T06:57:00.896Z,123.43
2023-03-10T06:59:32.493Z,108.10
2023-03-10T07:02:01.008Z,99.27
2023-03-10T07:04:30.040Z,111.20
2023-03-10T07:06:58.561Z,103.97
2023-03-10T07:09:27.311Z,98.00
2023-03-10T07:11:55.724Z,97.93
2023-03-10T07:14:25.832Z,94.33
2023-03-10T07:16:54.400Z,105.77
2023-03-10T07:19:23.578Z,97.40
2023-03-10T07:21:52.144Z,93.10
2023-03-10T07:24:21.916Z,77.47
2023-03-10T07:26:50.594Z,93.27
2023-03-10T07:29:19.306Z,84.30
2023-03-10T07:31:49.301Z,82.83
2023-03-10T07:34:18.080Z,90.87
2023-03-10T07:36:46.609Z,81.30
2023-03-10T07:39:15.404Z,82.20
2023-03-10T07:41:43.849Z,89.53
2023-03-10T07:44:12.669Z,75.23
2023-03-10T07:46:41.156Z,85.77
2023-03-10T07:49:11.326Z,83.17
2023-03-10T07:51:39.850Z,75.73
2023-03-10T07:54:08.904Z,74.07
2023-03-10T07:56:37.319Z,85.60
2023-03-10T07:59:06.461Z,73.37
2023-03-10T08:01:35.477Z,72.83
2023-03-10T08:04:05.099Z,66.43
2023-03-10T08:06:35.737Z,71.07
2023-03-10T08:09:05.123Z,69.60
2023-03-10T08:11:33.605Z,65.20
2023-03-10T08:14:02.445Z,62.87
2023-03-10T08:16:31.083Z,63.97
2023-03-10T08:18:59.925Z,69.27
2023-03-10T08:21:28.411Z,58.70
2023-03-10T08:23:58.773Z,59.87
2023-03-10T08:26:27.263Z,52.73
2023-03-10T08:28:56.488Z,51.83
2023-03-10T08:31:24.977Z,54.60
2023-03-10T08:33:56.624Z,46.83
2023-03-10T08:36:26.665Z,45.67
2023-03-10T08:38:57.209Z,37.30
2023-03-10T08:41:29.273Z,51.10
2023-03-10T08:43:59.957Z,53.97
2023-03-10T08:46:30.442Z,38.80
2023-03-10T08:48:59.828Z,51.73
2023-03-10T08:51:29.754Z,42.30
2023-03-10T08:53:58.728Z,39.70
2023-03-10T08:56:29.155Z,44.40
2023-03-10T08:59:00.531Z,55.27
2023-03-10T09:01:31.966Z,48.60
2023-03-10T09:04:01.366Z,54.73
2023-03-10T09:06:30.062Z,42.67
2023-03-10T09:09:02.289Z,46.90
2023-03-10T09:11:35.477Z,46.70
2023-03-10T09:14:07.674Z,40.10
2023-03-10T09:16:36.593Z,33.37
2023-03-10T09:19:05.486Z,40.87
2023-03-10T09:21:34.372Z,34.90
2023-03-10T09:24:03.717Z,39.03
2023-03-10T09:26:34.563Z,33.33
2023-03-10T09:29:04.538Z,33.47
2023-03-10T09:31:35.324Z,34.57
2023-03-10T09:34:05.235Z,35.47
2023-03-10T09:36:34.009Z,28.93
2023-03-10T09:39:03.075Z,33.47
2023-03-10T09:41:51.089Z,29.40
2023-03-10T09:44:31.822Z,30.63
2023-03-10T09:47:19.652Z,35.57
2023-03-10T09:49:56.182Z,37.20
2023-03-10T09:52:29.307Z,25.60
2023-03-10T09:55:03.664Z,30.23
2023-03-10T09:57:34.696Z,36.43
2023-03-10T10:00:09.396Z,25.50
2023-03-10T10:02:41.622Z,32.43
2023-03-10T10:05:17.438Z,34.10
2023-03-10T10:07:50.346Z,32.50
2023-03-10T10:10:20.989Z,38.33
2023-03-10T10:12:53.915Z,25.93
2023-03-10T10:15:25.180Z,32.00
2023-03-10T10:18:17.967Z,34.30
2023-03-10T10:20:51.640Z,31.47
2023-03-10T10:23:25.008Z,27.17
2023-03-10T10:25:54.692Z,26.20
2023-03-10T10:28:30.250Z,31.03
2023-03-10T10:31:13.087Z,24.00
2023-03-10T10:34:01.011Z,24.63
2023-03-10T10:36:31.971Z,20.73
2023-03-10T10:39:00.890Z,27.93
2023-03-10T10:41:31.984Z,24.50
2023-03-10T10:44:08.459Z,28.53
2023-03-10T10:46:37.385Z,32.93
2023-03-10T10:49:08.982Z,26.33
2023-03-10T10:51:38.829Z,29.10
2023-03-10T10:54:28.132Z,34.00
2023-03-10T10:56:58.985Z,24.07
2023-03-10T10:59:33.589Z,23.33
2023-03-10T11:02:04.089Z,23.67
2023-03-10T11:04:44.038Z,21.30
2023-03-10T11:07:17.565Z,25.63
2023-03-10T11:09:46.975Z,21.53
2023-03-10T11:12:22.064Z,31.10
2023-03-10T11:15:04.285Z,27.17
2023-03-10T11:17:36.202Z,23.80
2023-03-10T11:20:14.019Z,22.00
2023-03-10T11:22:47.225Z,25.80
2023-03-10T11:25:27.862Z,28.33
2023-03-10T11:28:14.874Z,18.67
2023-03-10T11:30:50.267Z,20.13
2023-03-10T11:33:27.727Z,14.83
2023-03-10T11:36:00.943Z,18.47
2023-03-10T11:38:38.489Z,16.03
2023-03-10T11:41:11.622Z,23.00
2023-03-10T11:43:56.588Z,20.20
2023-03-10T11:46:30.968Z,23.97
2023-03-10T11:49:07.274Z,26.00
2023-03-10T11:51:40.088Z,16.93
2023-03-10T11:54:15.512Z,19.83
2023-03-10T11:56:44.428Z,19.30
2023-03-10T11:59:18.140Z,25.97
2023-03-10T12:01:53.042Z,20.20
2023-03-10T12:04:25.937Z,23.15
2023-03-10T12:06:59.894Z,23.98
2023-03-10T12:09:42.158Z,21.63
2023-03-10T12:15:02.268Z,21.70
2023-03-10T12:17:32.669Z,22.05
2023-03-10T12:20:26.872Z,21.30
2023-03-10T12:22:56.634Z,24.90
2023-03-10T12:25:45.625Z,18.50
2023-03-10T12:28:24.307Z,24.30
2023-03-10T12:30:57.388Z,15.43
2023-03-10T12:33:48.227Z,21.30
2023-03-10T12:36:39.508Z,20.05
2023-03-10T12:39:32.912Z,24.53
2023-03-10T12:42:02.794Z,25.52
2023-03-10T12:44:51.175Z,20.07
2023-03-10T12:47:44.564Z,22.90
2023-03-10T12:50:47.459Z,20.97
2023-03-10T12:53:30.120Z,20.17
2023-03-10T12:56:21.051Z,23.15
2023-03-10T12:58:55.594Z,21.23
2023-03-10T13:01:32.057Z,18.05
2023-03-10T13:04:05.852Z,18.63
2023-03-10T13:06:40.574Z,23.23
2023-03-10T13:09:19.844Z,16.50
2023-03-10T13:11:54.534Z,23.48
2023-03-10T13:14:24.748Z,22.25
2023-03-10T13:17:00.145Z,19.58
2023-03-10T13:19:30.858Z,17.90
2023-03-10T13:22:01.388Z,18.50
2023-03-10T13:24:32.096Z,17.17
2023-03-10T13:27:05.920Z,17.83
2023-03-10T13:29:35.242Z,15.18
2023-03-10T13:32:03.895Z,21.58
2023-03-10T13:34:34.389Z,17.42
2023-03-10T13:37:06.891Z,19.85
2023-03-10T13:39:36.480Z,20.60
2023-03-10T13:42:24.091Z,17.48
2023-03-10T13:44:55.540Z,23.13
2023-03-10T13:47:26.199Z,15.30
2023-03-10T13:49:58.820Z,13.15
2023-03-10T13:52:30.458Z,24.88
2023-03-10T13:55:12.457Z,15.75
2023-03-10T13:57:42.070Z,19.67
2023-03-10T14:00:14.825Z,17.02
2023-03-10T14:02:45.067Z,8.40
2023-03-10T14:05:39.062Z,23.63
2023-03-10T14:08:19.591Z,14.35
2023-03-10T14:10:48.481Z,27.90
2023-03-10T14:13:41.623Z,13.27
2023-03-10T14:16:10.857Z,21.92
2023-03-10T14:18:41.348Z,21.67
2023-03-10T14:21:34.463Z,18.55
2023-03-10T14:24:06.012Z,22.40
2023-03-10T14:26:35.057Z,23.33
2023-03-10T14:29:07.061Z,23.92
2023-03-10T14:31:35.845Z,18.65
2023-03-10T14:34:05.060Z,20.48
2023-03-10T14:36:33.942Z,20.42
2023-03-10T14:39:02.356Z,22.63
2023-03-10T14:41:32.746Z,25.33
2023-03-10T14:44:02.231Z,21.65
2023-03-10T14:46:32.886Z,20.90
2023-03-10T14:49:01.598Z,25.48
2023-03-10T14:51:35.856Z,25.23
2023-03-10T14:54:05.045Z,20.92
2023-03-10T14:56:35.266Z,27.58
2023-03-10T14:59:06.583Z,20.60
2023-03-10T15:01:35.495Z,16.70
2023-03-10T15:04:04.737Z,26.20
2023-03-10T15:06:33.557Z,17.27
2023-03-10T15:09:02.004Z,16.88
2023-03-10T15:11:37.298Z,22.05
2023-03-10T15:14:14.631Z,12.35
2023-03-10T15:16:43.779Z,14.57
2023-03-10T15:19:19.310Z,23.40
2023-03-10T15:21:48.270Z,20.67
2023-03-10T15:24:16.843Z,18.00
2023-03-10T15:26:45.762Z,23.53
2023-03-10T15:29:17.427Z,19.57
2023-03-10T15:31:46.271Z,20.67
2023-03-10T15:34:14.725Z,30.27
2023-03-10T15:36:43.975Z,25.00
2023-03-10T15:39:18.867Z,29.85
2023-03-10T15:41:54.204Z,32.43
2023-03-10T15:44:23.997Z,27.50
2023-03-10T15:46:54.908Z,32.27
2023-03-10T15:49:23.682Z,27.30
2023-03-10T15:51:52.503Z,32.15
2023-03-10T15:54:20.996Z,37.50
2023-03-10T15:56:49.685Z,29.43
2023-03-10T15:59:18.340Z,39.50
2023-03-10T16:01:48.554Z,31.50
2023-03-10T16:04:17.166Z,28.60
2023-03-10T16:06:45.995Z,34.20
2023-03-10T16:09:15.045Z,29.63
2023-03-10T16:11:43.824Z,32.60
2023-03-10T16:14:12.279Z,34.63
2023-03-10T16:16:41.232Z,33.23
2023-03-10T16:19:11.154Z,28.23
2023-03-10T16:21:39.909Z,30.13
2023-03-10T16:24:08.852Z,34.47
2023-03-10T16:26:37.631Z,26.43
2023-03-10T16:29:06.075Z,27.07
2023-03-10T16:31:34.935Z,29.57
2023-03-10T16:34:03.606Z,33.37
2023-03-10T16:36:36.435Z,27.87
2023-03-10T16:39:09.257Z,37.37
2023-03-10T16:41:38.220Z,40.30
2023-03-10T16:44:07.373Z,38.37
2023-03-10T16:46:36.313Z,45.27
2023-03-10T16:49:05.411Z,39.73
2023-03-10T16:51:38.069Z,34.17
2023-03-10T16:54:08.353Z,36.87
2023-03-10T16:56:38.862Z,37.27
2023-03-10T16:59:08.319Z,37.33
2023-03-10T17:01:37.241Z,46.30
2023-03-10T17:04:05.928Z,42.63
2023-03-10T17:06:36.389Z,40.73
2023-03-10T17:09:06.366Z,36.43
2023-03-10T17:11:36.659Z,30.50
2023-03-10T17:14:07.813Z,38.73
2023-03-10T17:16:37.616Z,39.87
2023-03-10T17:19:08.296Z,34.63
2023-03-10T17:21:40.491Z,41.20
2023-03-10T17:24:09.898Z,41.80
2023-03-10T17:26:38.769Z,33.43
2023-03-10T17:29:08.445Z,30.63
2023-03-10T17:31:37.497Z,37.17
2023-03-10T17:34:07.825Z,29.20
2023-03-10T17:36:38.650Z,28.37
2023-03-10T17:39:07.918Z,71.50
2023-03-10T17:41:37.810Z,28.73
2023-03-10T17:44:06.402Z,29.00
2023-03-10T17:46:36.358Z,32.03
2023-03-10T17:49:04.951Z,35.83
2023-03-10T17:51:33.953Z,31.97
2023-03-10T17:54:04.022Z,35.00
2023-03-10T17:56:32.955Z,28.90
2023-03-10T17:59:01.369Z,27.70
2023-03-10T18:01:31.749Z,42.30
2023-03-10T18:04:01.516Z,33.73
2023-03-10T18:06:32.668Z,26.07
2023-03-10T18:09:04.526Z,30.67
2023-03-10T18:11:33.828Z,35.70
2023-03-10T18:14:03.743Z,33.33
2023-03-10T18:16:35.594Z,36.90
2023-03-10T18:19:05.173Z,35.60
2023-03-10T18:21:34.102Z,36.70
2023-03-10T18:24:04.389Z,38.97
2023-03-10T18:26:33.762Z,43.57
2023-03-10T18:29:02.273Z,42.27
2023-03-10T18:31:33.319Z,36.70
2023-03-10T18:34:02.232Z,32.67
2023-03-10T18:36:32.935Z,30.70
2023-03-10T18:39:04.884Z,31.63
2023-03-10T18:41:33.902Z,36.07
2023-03-10T18:44:02.562Z,58.77
2023-03-10T18:46:31.525Z,61.83
2023-03-10T18:49:00.136Z,46.67
2023-03-10T18:51:29.635Z,63.17
2023-03-10T18:53:58.455Z,47.37
2023-03-10T18:56:29.260Z,43.13
2023-03-10T18:58:58.107Z,53.30
2023-03-10T19:01:27.783Z,40.00
2023-03-10T19:03:56.369Z,46.97
2023-03-10T19:06:31.021Z,50.90
2023-03-10T19:08:59.917Z,44.50
2023-03-10T19:11:35.425Z,38.43
2023-03-10T19:14:05.368Z,44.67
2023-03-10T19:16:36.480Z,43.17
2023-03-10T19:19:05.045Z,39.93
2023-03-10T19:21:36.026Z,52.20
2023-03-10T19:24:04.863Z,57.83
2023-03-10T19:26:35.177Z,48.87
2023-03-10T19:29:03.855Z,48.00
2023-03-10T19:31:32.703Z,42.63
2023-03-10T19:34:01.320Z,48.10
2023-03-10T19:36:30.131Z,45.80
2023-03-10T19:38:58.718Z,36.87
2023-03-10T19:41:28.047Z,53.50
2023-03-10T19:43:59.030Z,50.73
2023-03-10T19:46:27.967Z,45.47
2023-03-10T19:48:56.526Z,68.53
2023-03-10T19:51:27.722Z,67.70
2023-03-10T19:53:58.390Z,45.57
2023-03-10T19:56:27.557Z,46.90
2023-03-10T19:58:57.788Z,45.73
2023-03-10T20:01:28.420Z,42.43
2023-03-10T20:03:58.994Z,40.73
2023-03-10T20:06:28.298Z,55.13
2023-03-10T20:08:57.341Z,40.87
2023-03-10T20:11:26.531Z,54.57
2023-03-10T20:13:55.340Z,49.20
2023-03-10T20:16:27.638Z,50.50
2023-03-10T20:18:56.502Z,35.87
2023-03-10T20:21:25.555Z,42.70
2023-03-10T20:23:55.982Z,40.63
2023-03-10T20:26:25.328Z,39.90
2023-03-10T20:28:54.016Z,43.37
2023-03-10T20:31:25.255Z,43.97
2023-03-10T20:33:54.219Z,39.53
2023-03-10T20:36:23.042Z,43.37
2023-03-10T20:38:51.574Z,48.67
2023-03-10T20:41:22.254Z,41.17
2023-03-10T20:43:50.821Z,39.53
2023-03-10T20:46:19.961Z,46.10
2023-03-10T20:48:51.754Z,50.20
2023-03-10T20:51:22.628Z,43.53
2023-03-10T20:53:51.884Z,36.27
2023-03-10T20:56:20.726Z,42.53
2023-03-10T20:58:49.766Z,47.27
2023-03-10T21:01:20.521Z,47.40
2023-03-10T21:03:54.503Z,44.23
2023-03-10T21:06:23.859Z,45.47
2023-03-10T21:08:52.475Z,45.90
2023-03-10T21:11:21.685Z,44.73
2023-03-10T21:13:50.906Z,47.37
2023-03-10T21:16:20.939Z,39.70
2023-03-10T21:18:51.051Z,41.67
2023-03-10T21:21:20.075Z,44.27
2023-03-10T21:23:48.680Z,40.67
2023-03-10T21:26:19.504Z,48.33
2023-03-10T21:28:49.722Z,48.03
2023-03-10T21:31:18.747Z,52.57
2023-03-10T21:33:47.321Z,45.67
2023-03-10T21:36:20.422Z,49.83
2023-03-10T21:38:50.094Z,51.20
2023-03-10T21:41:20.406Z,57.57
2023-03-10T21:43:49.021Z,75.33
2023-03-10T21:46:17.846Z,65.10
2023-03-10T21:48:46.407Z,64.93
2023-03-10T21:51:18.491Z,70.33
2023-03-10T21:53:47.290Z,56.37
2023-03-10T21:56:17.907Z,58.53
2023-03-10T21:58:47.126Z,59.93
2023-03-10T22:01:17.901Z,63.63
2023-03-10T22:03:46.549Z,58.23
2023-03-10T22:06:15.293Z,57.70
2023-03-10T22:08:45.226Z,52.93
2023-03-10T22:11:14.403Z,53.37
2023-03-10T22:13:43.069Z,51.40
2023-03-10T22:16:16.076Z,54.67
2023-03-10T22:18:44.822Z,45.73
2023-03-10T22:21:13.535Z,44.10
2023-03-10T22:23:43.691Z,46.17
2023-03-10T22:26:14.682Z,45.20
2023-03-10T22:28:43.265Z,45.40
2023-03-10T22:31:12.381Z,41.07
2023-03-10T22:33:40.980Z,36.07
2023-03-10T22:36:13.570Z,49.73
2023-03-10T22:38:42.284Z,45.83
2023-03-10T22:41:13.344Z,42.40
2023-03-10T22:43:42.449Z,42.17
2023-03-10T22:46:13.149Z,44.63
2023-03-10T22:48:42.054Z,40.33
2023-03-10T22:51:16.322Z,39.07
2023-03-10T22:53:46.814Z,41.40
2023-03-10T22:56:17.329Z,35.70
2023-03-10T22:58:46.117Z,34.67
2023-03-10T23:01:15.091Z,34.60
2023-03-10T23:03:43.747Z,27.37
2023-03-10T23:06:13.914Z,45.87
2023-03-10T23:08:43.622Z,35.60
2023-03-10T23:11:14.213Z,33.67
2023-03-10T23:13:44.095Z,44.80
2023-03-10T23:16:13.172Z,38.60
2023-03-10T23:18:41.902Z,31.70
2023-03-10T23:21:10.698Z,37.07
2023-03-10T23:23:43.539Z,31.97
2023-03-10T23:26:12.754Z,33.33
2023-03-10T23:28:41.282Z,29.43
2023-03-10T23:31:15.361Z,36.77
2023-03-10T23:33:44.739Z,25.93
2023-03-10T23:36:14.127Z,29.03
2023-03-10T23:38:42.634Z,28.97
2023-03-10T23:41:11.806Z,32.67
2023-03-10T23:43:40.262Z,32.07
2023-03-10T23:46:12.560Z,34.37
2023-03-10T23:48:41.027Z,28.77
2023-03-10T23:51:14.683Z,27.47
2023-03-10T23:53:43.469Z,33.63
2023-03-10T23:56:12.405Z,35.97
2023-03-10T23:58:41.504Z,25.80
